createdAt,value
2022-10-26T00:05:55.602Z,1011.115
2022-10-26T00:10:58.182Z,1011.09
2022-10-26T00:16:03.532Z,1011.035
2022-10-26T00:26:08.774Z,1011.144
2022-10-26T00:31:14.546Z,1011.234
2022-10-26T00:36:17.267Z,1011.309
2022-10-26T00:41:20.044Z,1011.382
2022-10-26T00:46:22.585Z,1011.332
2022-10-26T00:56:27.706Z,1011.335
2022-10-26T01:01:30.195Z,1011.298
2022-10-26T01:06:32.918Z,1011.223
2022-10-26T01:11:35.708Z,1011.217
2022-10-26T01:16:39.519Z,1011.176
2022-10-26T01:21:41.565Z,1011.148
2022-10-26T01:31:47.285Z,1011.105
2022-10-26T01:36:49.875Z,1011.09
2022-10-26T01:41:52.529Z,1011.097
2022-10-26T01:46:55.226Z,1011.01
2022-10-26T01:51:57.759Z,1011.006
2022-10-26T01:57:00.521Z,1010.947
2022-10-26T02:02:03.188Z,1010.907
2022-10-26T02:07:05.621Z,1010.927
2022-10-26T02:12:08.521Z,1010.916
2022-10-26T02:17:11.163Z,1010.83
2022-10-26T02:22:16.324Z,1010.787
2022-10-26T02:27:19.117Z,1010.789
2022-10-26T02:32:21.744Z,1010.833
2022-10-26T02:37:24.199Z,1010.904
2022-10-26T02:42:26.948Z,1010.923
2022-10-26T02:47:29.644Z,1010.946
2022-10-26T02:57:34.782Z,1010.946
2022-10-26T03:02:37.544Z,1010.905
2022-10-26T03:07:40.281Z,1010.911
2022-10-26T03:12:42.599Z,1010.953
2022-10-26T03:17:44.986Z,1010.996
2022-10-26T03:22:47.654Z,1010.971
2022-10-26T03:32:53.179Z,1010.967
2022-10-26T03:37:58.470Z,1010.915
2022-10-26T03:43:01.211Z,1010.945
2022-10-26T03:48:03.830Z,1010.961
2022-10-26T03:53:06.422Z,1010.958
2022-10-26T03:58:09.112Z,1010.945
2022-10-26T04:03:14.374Z,1010.947
2022-10-26T04:08:17.212Z,1010.974
2022-10-26T04:13:19.841Z,1011.013
2022-10-26T04:28:27.707Z,1011.036
2022-10-26T04:33:30.220Z,1011.008
2022-10-26T04:38:38.374Z,1011.06
2022-10-26T04:43:41.257Z,1011.028
2022-10-26T04:48:43.977Z,1011.03
2022-10-26T04:58:49.187Z,1011.031
2022-10-26T05:03:54.545Z,1010.973
2022-10-26T05:13:59.926Z,1010.964
2022-10-26T05:29:08.106Z,1010.989
2022-10-26T05:34:10.798Z,1010.994
2022-10-26T05:39:13.546Z,1011.016
2022-10-26T05:44:16.100Z,1011.01
2022-10-26T05:49:19.125Z,1011.054
2022-10-26T05:54:21.883Z,1011.113
2022-10-26T05:59:24.706Z,1011.126
2022-10-26T06:04:27.105Z,1011.08
2022-10-26T06:09:35.407Z,1011.127
2022-10-26T06:14:41.021Z,1011.179
2022-10-26T06:19:43.686Z,1011.205
2022-10-26T06:29:49.475Z,1011.274
2022-10-26T06:34:52.494Z,1011.315
2022-10-26T06:44:59.019Z,1011.349
2022-10-26T06:50:04.578Z,1011.357
2022-10-26T07:00:10.400Z,1011.382
2022-10-26T07:10:15.912Z,1011.423
2022-10-26T07:15:18.760Z,1011.41
2022-10-26T07:20:21.573Z,1011.374
2022-10-26T07:25:24.020Z,1011.396
2022-10-26T07:30:26.840Z,1011.418
2022-10-26T07:35:29.546Z,1011.378
2022-10-26T07:45:34.900Z,1011.46
2022-10-26T07:50:40.465Z,1011.473
2022-10-26T07:55:43.276Z,1011.438
2022-10-26T08:00:45.901Z,1011.361
2022-10-26T08:05:48.420Z,1011.424
2022-10-26T08:10:50.811Z,1011.406
2022-10-26T08:21:01.941Z,1011.516
2022-10-26T08:26:02.036Z,1011.514
2022-10-26T08:31:04.949Z,1011.584
2022-10-26T08:36:07.571Z,1011.536
2022-10-26T08:41:10.351Z,1011.571
2022-10-26T08:46:13.407Z,1011.525
2022-10-26T08:51:16.289Z,1011.515
2022-10-26T09:01:21.654Z,1011.508
2022-10-26T09:06:26.885Z,1011.479
2022-10-26T09:11:29.447Z,1011.499
2022-10-26T09:16:31.878Z,1011.511
2022-10-26T09:21:34.864Z,1011.53
2022-10-26T09:31:49.570Z,1011.503
2022-10-26T09:36:52.077Z,1011.542
2022-10-26T09:41:54.702Z,1011.594
2022-10-26T09:47:00.147Z,1011.641
2022-10-26T09:52:02.860Z,1011.569
2022-10-26T09:57:08.181Z,1011.628
2022-10-26T10:02:10.980Z,1011.626
2022-10-26T10:12:16.135Z,1011.762
2022-10-26T10:22:24.660Z,1011.665
2022-10-26T10:27:27.311Z,1011.669
2022-10-26T10:37:32.518Z,1011.687
2022-10-26T10:42:35.411Z,1011.651
2022-10-26T10:52:43.462Z,1011.574
2022-10-26T11:02:48.834Z,1011.639
2022-10-26T11:07:51.763Z,1011.688
2022-10-26T11:12:54.147Z,1011.645
2022-10-26T11:17:56.689Z,1011.706
2022-10-26T11:28:01.818Z,1011.524
2022-10-26T11:33:04.718Z,1011.516
2022-10-26T11:38:07.299Z,1011.539
2022-10-26T11:48:12.261Z,1011.412
2022-10-26T11:53:14.671Z,1011.373
2022-10-26T11:58:17.516Z,1011.362
2022-10-26T12:03:20.141Z,1011.353
2022-10-26T12:13:25.516Z,1011.299
2022-10-26T12:18:43.450Z,1011.242
2022-10-26T12:23:34.145Z,1011.3
2022-10-26T12:28:33.771Z,1011.182
2022-10-26T12:33:36.314Z,1011.157
2022-10-26T12:38:38.940Z,1011.178
2022-10-26T12:43:41.642Z,1011.22
2022-10-26T12:53:47.092Z,1011.271
2022-10-26T12:58:49.789Z,1011.252
2022-10-26T13:03:52.459Z,1011.255
2022-10-26T13:08:56.290Z,1011.28
2022-10-26T13:13:57.696Z,1011.174
2022-10-26T13:19:00.343Z,1011.179
2022-10-26T13:24:02.967Z,1011.124
2022-10-26T13:29:10.646Z,1011.181
2022-10-26T13:39:16.637Z,1011.195
2022-10-26T13:44:20.405Z,1011.222
2022-10-26T13:49:22.092Z,1011.286
2022-10-26T13:54:24.881Z,1011.317
2022-10-26T13:59:27.333Z,1011.374
2022-10-26T14:04:29.696Z,1011.331
2022-10-26T14:09:35.233Z,1011.388
2022-10-26T14:14:40.767Z,1011.395
2022-10-26T14:19:46.301Z,1011.361
2022-10-26T14:30:10.097Z,1011.495
2022-10-26T14:34:53.916Z,1011.521
2022-10-26T14:39:56.587Z,1011.525
2022-10-26T14:50:02.097Z,1011.647
2022-10-26T14:55:04.801Z,1011.738
2022-10-26T15:00:07.470Z,1011.666
2022-10-26T15:05:10.248Z,1011.742
2022-10-26T15:10:14.037Z,1011.762
2022-10-26T15:15:16.750Z,1011.802
2022-10-26T15:20:19.747Z,1011.75
2022-10-26T15:30:27.613Z,1011.756
2022-10-26T15:35:30.340Z,1011.838
2022-10-26T15:40:32.834Z,1011.861
2022-10-26T15:45:35.484Z,1011.933
2022-10-26T15:50:40.530Z,1011.914
2022-10-26T16:00:46.376Z,1011.964
2022-10-26T16:05:48.465Z,1012.05
2022-10-26T16:10:51.000Z,1012.069
2022-10-26T16:15:53.689Z,1012.083
2022-10-26T16:20:58.991Z,1012.074
2022-10-26T16:26:01.540Z,1012.089
2022-10-26T16:36:09.555Z,1012.077
2022-10-26T16:41:12.122Z,1012.114
2022-10-26T16:46:14.848Z,1012.161
2022-10-26T16:51:17.499Z,1012.201
2022-10-26T16:56:22.814Z,1012.284
2022-10-26T17:06:28.107Z,1012.384
2022-10-26T17:11:30.802Z,1012.437
2022-10-26T17:16:33.382Z,1012.487
2022-10-26T17:21:36.117Z,1012.555
2022-10-26T17:26:38.565Z,1012.531
2022-10-26T17:31:41.015Z,1012.734
2022-10-26T17:41:46.220Z,1012.775
2022-10-26T17:46:48.639Z,1012.801
2022-10-26T17:51:53.840Z,1012.812
2022-10-26T17:56:56.678Z,1012.834
2022-10-26T18:01:59.343Z,1012.897
2022-10-26T18:07:01.844Z,1013.027
2022-10-26T18:12:06.036Z,1013.075
2022-10-26T18:17:08.875Z,1013.196
2022-10-26T18:22:11.406Z,1013.179
2022-10-26T18:32:16.855Z,1013.383
2022-10-26T18:37:22.314Z,1013.404
2022-10-26T18:42:25.086Z,1013.441
2022-10-26T18:52:30.565Z,1013.498
2022-10-26T18:57:33.016Z,1013.43
2022-10-26T19:17:43.913Z,1013.539
2022-10-26T19:32:54.552Z,1013.648
2022-10-26T19:42:59.844Z,1013.836
2022-10-26T19:48:02.348Z,1013.865
2022-10-26T19:53:04.915Z,1013.902
2022-10-26T19:58:07.629Z,1013.959
2022-10-26T20:03:10.261Z,1014.055
2022-10-26T20:08:15.712Z,1014.085
2022-10-26T20:13:18.296Z,1014.106
2022-10-26T20:23:23.217Z,1014.197
2022-10-26T20:28:25.677Z,1014.325
2022-10-26T20:33:31.017Z,1014.323
2022-10-26T20:38:33.793Z,1014.334
2022-10-26T20:43:36.582Z,1014.426
2022-10-26T20:48:39.258Z,1014.464
2022-10-26T20:53:42.247Z,1014.488
2022-10-26T21:03:47.771Z,1014.616
2022-10-26T21:13:53.533Z,1014.636
2022-10-26T21:18:56.269Z,1014.64
2022-10-26T21:23:58.745Z,1014.654
2022-10-26T21:29:01.365Z,1014.661
2022-10-26T21:34:06.691Z,1014.737
2022-10-26T21:39:09.723Z,1014.786
2022-10-26T21:44:23.455Z,1014.865
2022-10-26T21:54:17.600Z,1015.006
2022-10-26T21:59:20.375Z,1014.999
2022-10-26T22:04:26.058Z,1015.067
2022-10-26T22:09:28.446Z,1015.021
2022-10-26T22:19:51.883Z,1015.017
2022-10-26T22:24:54.639Z,1014.994
2022-10-26T22:29:57.442Z,1015.03
2022-10-26T22:40:02.569Z,1015.091
2022-10-26T22:45:05.015Z,1015.045
2022-10-26T22:50:07.667Z,1015.067
2022-10-26T22:55:10.335Z,1015.133
2022-10-26T23:00:15.735Z,1015.118
2022-10-26T23:05:18.426Z,1015.18
2022-10-26T23:10:23.755Z,1015.225
2022-10-26T23:25:31.417Z,1015.427
2022-10-26T23:30:34.544Z,1015.514
2022-10-26T23:35:37.430Z,1015.506
2022-10-26T23:40:40.162Z,1015.52
2022-10-26T23:45:42.864Z,1015.48
